createdAt,value
2022-10-23T00:01:23.262Z,99.90
2022-10-23T00:04:00.209Z,99.90
2022-10-23T00:06:28.259Z,99.90
2022-10-23T00:08:56.435Z,99.90
2022-10-23T00:11:26.300Z,99.90
2022-10-23T00:14:00.313Z,99.90
2022-10-23T00:16:28.548Z,99.90
2022-10-23T00:18:55.998Z,99.90
2022-10-23T00:21:23.861Z,99.90
2022-10-23T00:23:51.101Z,99.90
2022-10-23T00:26:18.614Z,99.90
2022-10-23T00:28:49.205Z,99.90
2022-10-23T00:31:16.784Z,99.90
2022-10-23T00:33:44.544Z,99.90
2022-10-23T00:36:12.942Z,99.90
2022-10-23T00:38:40.778Z,99.90
2022-10-23T00:41:09.326Z,99.90
2022-10-23T00:44:03.309Z,99.90
2022-10-23T00:46:30.646Z,99.90
2022-10-23T00:48:59.317Z,99.90
2022-10-23T00:51:31.449Z,99.90
2022-10-23T00:54:12.904Z,99.90
2022-10-23T00:56:47.646Z,99.90
2022-10-23T00:59:15.523Z,99.90
2022-10-23T01:01:43.235Z,99.90
2022-10-23T01:04:10.946Z,99.90
2022-10-23T01:07:01.907Z,99.90
2022-10-23T01:09:42.137Z,99.90
2022-10-23T01:12:30.498Z,99.90
2022-10-23T01:15:07.594Z,99.90
2022-10-23T01:18:00.030Z,99.90
2022-10-23T01:20:35.311Z,99.90
2022-10-23T01:23:03.162Z,99.90
2022-10-23T01:25:59.558Z,99.90
2022-10-23T01:28:53.281Z,99.90
2022-10-23T01:31:36.820Z,99.90
2022-10-23T01:34:14.176Z,99.90
2022-10-23T01:36:46.996Z,99.90
2022-10-23T01:39:28.559Z,99.90
2022-10-23T01:42:11.067Z,99.90
2022-10-23T01:44:59.451Z,99.90
2022-10-23T01:47:31.034Z,99.90
2022-10-23T01:50:06.271Z,99.90
2022-10-23T01:52:34.511Z,99.90
2022-10-23T01:55:05.756Z,99.90
2022-10-23T01:57:36.458Z,99.90
2022-10-23T02:00:15.584Z,99.90
2022-10-23T02:02:52.983Z,99.90
2022-10-23T02:05:26.326Z,99.90
2022-10-23T02:07:54.470Z,99.90
2022-10-23T02:10:27.006Z,99.90
2022-10-23T02:13:13.125Z,99.90
2022-10-23T02:15:43.296Z,99.90
2022-10-23T02:18:32.277Z,99.90
2022-10-23T02:21:07.647Z,99.90
2022-10-23T02:23:45.320Z,99.90
2022-10-23T02:26:12.314Z,99.90
2022-10-23T02:29:23.810Z,99.90
2022-10-23T02:31:50.871Z,99.90
2022-10-23T02:34:19.501Z,99.90
2022-10-23T02:36:46.780Z,99.90
2022-10-23T02:39:14.140Z,99.90
2022-10-23T02:41:51.243Z,99.90
2022-10-23T02:44:19.669Z,99.90
2022-10-23T02:47:10.246Z,99.90
2022-10-23T02:49:53.911Z,99.90
2022-10-23T02:53:00.044Z,99.90
2022-10-23T02:55:34.754Z,99.90
2022-10-23T02:58:16.516Z,99.90
2022-10-23T03:00:52.229Z,99.90
2022-10-23T03:03:34.292Z,99.90
2022-10-23T03:06:01.858Z,99.90
2022-10-23T03:08:28.982Z,99.90
2022-10-23T03:10:56.698Z,99.90
2022-10-23T03:13:24.156Z,99.90
2022-10-23T03:15:51.417Z,99.90
2022-10-23T03:18:18.472Z,99.90
2022-10-23T03:20:49.533Z,99.90
2022-10-23T03:23:16.574Z,99.90
2022-10-23T03:25:43.797Z,99.90
2022-10-23T03:28:22.276Z,99.90
2022-10-23T03:30:49.566Z,99.90
2022-10-23T03:33:16.722Z,99.90
2022-10-23T03:35:44.435Z,99.90
2022-10-23T03:38:14.402Z,99.90
2022-10-23T03:40:42.910Z,99.90
2022-10-23T03:43:13.045Z,99.90
2022-10-23T03:45:41.464Z,99.90
2022-10-23T03:48:08.720Z,99.90
2022-10-23T03:50:36.836Z,99.90
2022-10-23T03:53:05.693Z,99.90
2022-10-23T03:55:34.726Z,99.90
2022-10-23T03:58:01.969Z,99.90
2022-10-23T04:00:29.268Z,99.90
2022-10-23T04:02:56.373Z,99.90
2022-10-23T04:05:23.639Z,99.90
2022-10-23T04:07:55.230Z,99.90
2022-10-23T04:10:22.666Z,99.90
2022-10-23T04:12:50.810Z,99.90
2022-10-23T04:15:18.220Z,99.90
2022-10-23T04:17:46.810Z,99.90
2022-10-23T04:20:14.515Z,99.90
2022-10-23T04:22:42.046Z,99.90
2022-10-23T04:25:10.924Z,99.90
2022-10-23T04:27:38.133Z,99.90
2022-10-23T04:30:06.078Z,99.90
2022-10-23T04:32:33.098Z,99.90
2022-10-23T04:35:00.772Z,99.90
2022-10-23T04:37:30.607Z,99.90
2022-10-23T04:39:57.858Z,99.90
2022-10-23T04:42:24.963Z,99.90
2022-10-23T04:44:52.528Z,99.90
2022-10-23T04:47:19.752Z,99.90
2022-10-23T04:49:56.505Z,99.90
2022-10-23T04:52:57.377Z,99.90
2022-10-23T04:56:02.946Z,99.90
2022-10-23T04:58:46.070Z,99.90
2022-10-23T05:01:13.471Z,99.90
2022-10-23T05:03:40.576Z,99.90
2022-10-23T05:06:08.766Z,99.90
2022-10-23T05:09:04.864Z,99.90
2022-10-23T05:11:44.454Z,99.90
2022-10-23T05:14:11.567Z,99.90
2022-10-23T05:16:52.067Z,99.90
2022-10-23T05:19:24.448Z,99.90
2022-10-23T05:21:55.881Z,99.90
2022-10-23T05:24:27.025Z,99.90
2022-10-23T05:27:00.667Z,99.90
2022-10-23T05:29:30.771Z,99.90
2022-10-23T05:32:02.507Z,99.90
2022-10-23T05:34:35.149Z,99.90
2022-10-23T05:37:05.720Z,99.90
2022-10-23T05:39:36.953Z,99.90
2022-10-23T05:42:08.885Z,99.90
2022-10-23T05:44:37.579Z,99.90
2022-10-23T05:47:19.129Z,99.90
2022-10-23T05:50:05.425Z,99.90
2022-10-23T05:53:11.544Z,99.90
2022-10-23T05:55:50.431Z,99.90
2022-10-23T05:58:50.007Z,99.90
2022-10-23T06:01:29.146Z,99.90
2022-10-23T06:04:04.917Z,99.90
2022-10-23T06:06:56.057Z,99.90
2022-10-23T06:09:23.655Z,99.90
2022-10-23T06:11:56.219Z,99.90
2022-10-23T06:14:23.963Z,99.90
2022-10-23T06:16:52.391Z,99.90
2022-10-23T06:19:20.179Z,99.90
2022-10-23T06:21:51.261Z,99.90
2022-10-23T06:24:18.532Z,99.90
2022-10-23T06:26:59.715Z,99.90
2022-10-23T06:29:38.936Z,99.90
2022-10-23T06:32:06.941Z,99.90
2022-10-23T06:34:35.121Z,99.90
2022-10-23T06:37:02.986Z,99.90
2022-10-23T06:39:47.900Z,99.90
2022-10-23T06:42:18.089Z,99.90
2022-10-23T06:44:54.276Z,99.90
2022-10-23T06:47:39.908Z,99.90
2022-10-23T06:50:26.885Z,99.90
2022-10-23T06:52:57.397Z,99.90
2022-10-23T06:55:24.921Z,99.90
2022-10-23T06:57:52.022Z,99.90
2022-10-23T07:00:21.531Z,99.90
2022-10-23T07:02:53.122Z,99.90
2022-10-23T07:05:20.777Z,99.90
2022-10-23T07:07:48.383Z,99.90
2022-10-23T07:10:22.076Z,99.90
2022-10-23T07:12:56.584Z,99.90
2022-10-23T07:15:46.807Z,99.90
2022-10-23T07:18:21.124Z,99.90
2022-10-23T07:21:09.570Z,99.90
2022-10-23T07:23:38.925Z,99.90
2022-10-23T07:26:10.548Z,99.90
2022-10-23T07:28:38.873Z,99.90
2022-10-23T07:31:06.607Z,99.90
2022-10-23T07:33:54.127Z,99.90
2022-10-23T07:36:22.373Z,99.90
2022-10-23T07:38:51.381Z,99.90
2022-10-23T07:41:19.304Z,99.90
2022-10-23T07:43:46.982Z,99.90
2022-10-23T07:46:15.148Z,99.90
2022-10-23T07:48:43.077Z,99.90
2022-10-23T07:51:15.933Z,99.90
2022-10-23T07:53:46.175Z,99.90
2022-10-23T07:56:32.280Z,99.90
2022-10-23T07:59:22.922Z,99.90
2022-10-23T08:01:56.622Z,99.90
2022-10-23T08:04:37.601Z,99.90
2022-10-23T08:07:23.482Z,99.90
2022-10-23T08:09:53.820Z,99.90
2022-10-23T08:12:21.260Z,99.90
2022-10-23T08:14:48.777Z,99.90
2022-10-23T08:17:16.284Z,99.90
2022-10-23T08:20:06.397Z,99.90
2022-10-23T08:22:40.531Z,99.90
2022-10-23T08:25:09.123Z,99.90
2022-10-23T08:27:37.066Z,99.90
2022-10-23T08:30:05.062Z,99.90
2022-10-23T08:32:32.687Z,99.90
2022-10-23T08:35:04.062Z,99.90
2022-10-23T08:37:33.491Z,99.90
2022-10-23T08:40:00.842Z,99.90
2022-10-23T08:42:56.430Z,99.90
2022-10-23T08:45:43.178Z,99.90
2022-10-23T08:48:33.297Z,99.90
2022-10-23T08:51:40.246Z,99.90
2022-10-23T08:54:40.384Z,99.90
2022-10-23T08:57:15.054Z,99.90
2022-10-23T08:59:50.519Z,99.90
2022-10-23T09:02:43.129Z,99.90
2022-10-23T09:05:39.458Z,99.90
2022-10-23T09:08:10.144Z,99.90
2022-10-23T09:10:58.816Z,99.90
2022-10-23T09:13:47.914Z,99.90
2022-10-23T09:16:18.036Z,99.90
2022-10-23T09:18:48.347Z,99.90
2022-10-23T09:21:16.300Z,99.90
2022-10-23T09:23:43.598Z,99.90
2022-10-23T09:26:19.068Z,99.90
2022-10-23T09:29:14.346Z,99.90
2022-10-23T09:31:52.815Z,99.90
2022-10-23T09:34:24.671Z,99.90
2022-10-23T09:39:34.118Z,99.90
2022-10-23T09:42:13.948Z,99.90
2022-10-23T09:44:50.187Z,99.90
2022-10-23T09:47:24.368Z,99.90
2022-10-23T09:49:57.112Z,99.90
2022-10-23T09:52:35.846Z,99.90
2022-10-23T09:55:19.009Z,99.90
2022-10-23T09:57:47.322Z,99.90
2022-10-23T10:00:20.587Z,99.90
2022-10-23T10:03:19.340Z,99.90
2022-10-23T10:06:03.005Z,99.90
2022-10-23T10:08:44.281Z,99.90
2022-10-23T10:11:23.661Z,99.90
2022-10-23T10:14:01.973Z,99.90
2022-10-23T10:16:44.277Z,99.90
2022-10-23T10:19:54.433Z,99.90
2022-10-23T10:22:39.471Z,99.90
2022-10-23T10:25:25.554Z,99.90
2022-10-23T10:28:04.435Z,99.90
2022-10-23T10:31:11.307Z,99.90
2022-10-23T10:34:12.486Z,99.90
2022-10-23T10:36:54.852Z,99.90
2022-10-23T10:39:44.448Z,99.90
2022-10-23T10:42:23.335Z,99.90
2022-10-23T10:45:08.676Z,99.90
2022-10-23T10:48:03.763Z,97.50
2022-10-23T10:50:59.394Z,96.70
2022-10-23T10:53:47.337Z,92.60
2022-10-23T10:56:17.701Z,92.70
2022-10-23T10:58:53.242Z,93.10
2022-10-23T11:01:27.556Z,95.30
2022-10-23T11:04:06.999Z,93.30
2022-10-23T11:06:37.254Z,90.00
2022-10-23T11:09:38.366Z,86.00
2022-10-23T11:12:05.696Z,75.80
2022-10-23T11:14:34.810Z,76.70
2022-10-23T11:17:24.392Z,80.80
2022-10-23T11:20:05.230Z,83.00
2022-10-23T11:22:51.567Z,84.90
2022-10-23T11:25:28.924Z,88.10
2022-10-23T11:28:28.675Z,83.70
2022-10-23T11:31:33.835Z,90.50
2022-10-23T11:34:19.379Z,94.40
2022-10-23T11:36:58.545Z,96.30
2022-10-23T11:39:30.961Z,98.00
2022-10-23T11:42:05.831Z,99.90
2022-10-23T11:44:45.957Z,99.90
2022-10-23T11:48:05.274Z,99.90
2022-10-23T11:51:00.340Z,99.90
2022-10-23T11:53:33.062Z,99.90
2022-10-23T11:56:20.461Z,99.90
2022-10-23T11:59:27.701Z,97.40
2022-10-23T12:02:00.968Z,97.10
2022-10-23T12:04:50.437Z,93.50
2022-10-23T12:07:25.403Z,93.20
2022-10-23T12:10:02.135Z,94.00
2022-10-23T12:12:40.899Z,93.50
2022-10-23T12:15:19.138Z,93.80
2022-10-23T12:17:48.672Z,95.60
2022-10-23T12:20:29.431Z,96.30
2022-10-23T12:23:21.388Z,97.20
2022-10-23T12:26:12.805Z,98.50
2022-10-23T12:28:49.222Z,99.90
2022-10-23T12:31:52.278Z,99.90
2022-10-23T12:34:28.185Z,99.90
2022-10-23T12:37:21.842Z,99.90
2022-10-23T12:39:56.845Z,99.90
2022-10-23T12:42:29.163Z,99.90
2022-10-23T12:45:20.510Z,99.90
2022-10-23T12:47:49.249Z,99.90
2022-10-23T12:50:25.584Z,99.90
2022-10-23T12:53:04.739Z,99.90
2022-10-23T12:55:57.350Z,99.90
2022-10-23T12:58:32.138Z,99.90
2022-10-23T13:01:05.352Z,99.20
2022-10-23T13:03:35.704Z,98.30
2022-10-23T13:06:05.382Z,99.50
2022-10-23T13:08:42.231Z,99.90
2022-10-23T13:11:35.101Z,99.50
2022-10-23T13:14:27.356Z,98.60
2022-10-23T13:17:02.379Z,98.20
2022-10-23T13:19:30.366Z,98.20
2022-10-23T13:21:58.704Z,99.10
2022-10-23T13:24:28.711Z,99.20
2022-10-23T13:26:57.441Z,99.10
2022-10-23T13:29:30.054Z,99.00
2022-10-23T13:31:58.281Z,99.00
2022-10-23T13:34:30.604Z,99.00
2022-10-23T13:37:04.102Z,98.00
2022-10-23T13:39:33.980Z,96.90
2022-10-23T13:42:11.902Z,96.50
2022-10-23T13:44:39.629Z,96.50
2022-10-23T13:47:11.194Z,96.70
2022-10-23T13:49:39.442Z,95.50
2022-10-23T13:52:12.735Z,94.60
2022-10-23T13:54:40.247Z,90.60
2022-10-23T13:57:13.718Z,91.20
2022-10-23T13:59:43.722Z,91.00
2022-10-23T14:02:20.770Z,89.60
2022-10-23T14:04:50.086Z,87.90
2022-10-23T14:07:17.329Z,87.40
2022-10-23T14:09:45.081Z,89.00
2022-10-23T14:12:12.497Z,82.30
2022-10-23T14:14:39.943Z,80.40
2022-10-23T14:17:07.361Z,79.90
2022-10-23T14:22:11.711Z,84.30
2022-10-23T14:24:39.387Z,87.10
2022-10-23T14:27:06.598Z,88.60
2022-10-23T14:29:34.445Z,89.80
2022-10-23T14:32:01.675Z,90.30
2022-10-23T14:34:29.260Z,91.50
2022-10-23T14:37:08.083Z,92.30
2022-10-23T14:39:36.310Z,92.90
2022-10-23T14:42:03.802Z,95.30
2022-10-23T14:44:33.814Z,96.10
2022-10-23T14:47:03.093Z,96.90
2022-10-23T14:49:31.664Z,97.50
2022-10-23T14:52:00.922Z,97.50
2022-10-23T14:54:35.222Z,97.90
2022-10-23T14:57:03.476Z,96.90
2022-10-23T14:59:31.051Z,94.80
2022-10-23T15:01:58.582Z,93.60
2022-10-23T15:04:26.155Z,92.70
2022-10-23T15:06:53.435Z,93.50
2022-10-23T15:09:20.954Z,95.90
2022-10-23T15:11:48.242Z,96.80
2022-10-23T15:14:26.405Z,97.90
2022-10-23T15:16:53.587Z,99.90
2022-10-23T15:19:22.466Z,99.90
2022-10-23T15:21:50.241Z,99.90
2022-10-23T15:24:22.145Z,99.90
2022-10-23T15:26:51.608Z,99.90
2022-10-23T15:29:23.065Z,99.90
2022-10-23T15:31:57.722Z,99.90
2022-10-23T15:34:26.382Z,99.90
2022-10-23T15:36:54.706Z,99.90
2022-10-23T15:39:25.437Z,99.90
2022-10-23T15:41:55.500Z,99.90
2022-10-23T15:44:25.764Z,99.90
2022-10-23T15:46:53.275Z,99.90
2022-10-23T15:49:20.835Z,99.90
2022-10-23T15:51:48.224Z,99.90
2022-10-23T15:54:19.166Z,99.90
2022-10-23T15:56:49.320Z,99.90
2022-10-23T15:59:19.257Z,99.90
2022-10-23T16:01:46.988Z,99.90
2022-10-23T16:04:16.178Z,99.90
2022-10-23T16:06:45.028Z,99.90
2022-10-23T16:09:13.100Z,99.90
2022-10-23T16:11:42.011Z,99.90
2022-10-23T16:14:13.957Z,99.90
2022-10-23T16:16:41.709Z,99.90
2022-10-23T16:19:11.492Z,99.90
2022-10-23T16:21:38.776Z,99.90
2022-10-23T16:24:08.879Z,99.90
2022-10-23T16:26:37.127Z,99.90
2022-10-23T16:29:07.373Z,99.90
2022-10-23T16:31:37.124Z,99.90
2022-10-23T16:34:05.607Z,99.90
2022-10-23T16:36:34.172Z,99.90
2022-10-23T16:39:09.154Z,99.90
2022-10-23T16:41:55.029Z,99.90
2022-10-23T16:44:25.812Z,99.90
2022-10-23T16:47:02.290Z,99.90
2022-10-23T16:49:32.230Z,99.90
2022-10-23T16:51:59.454Z,99.90
2022-10-23T16:54:26.861Z,99.90
2022-10-23T16:56:54.153Z,99.90
2022-10-23T16:59:21.547Z,99.90
2022-10-23T17:01:49.240Z,99.90
2022-10-23T17:04:16.789Z,99.90
2022-10-23T17:06:46.973Z,99.90
2022-10-23T17:09:15.421Z,99.90
2022-10-23T17:11:45.026Z,99.90
2022-10-23T17:14:16.979Z,99.90
2022-10-23T17:16:45.594Z,99.90
2022-10-23T17:19:33.137Z,99.90
2022-10-23T17:22:01.648Z,99.90
2022-10-23T17:24:29.163Z,99.90
2022-10-23T17:26:56.988Z,99.90
2022-10-23T17:29:24.493Z,99.90
2022-10-23T17:31:51.850Z,99.90
2022-10-23T17:34:22.253Z,99.90
2022-10-23T17:36:52.147Z,99.90
2022-10-23T17:39:23.082Z,99.90
2022-10-23T17:41:54.287Z,99.90
2022-10-23T17:44:22.284Z,99.90
2022-10-23T17:46:53.879Z,99.90
2022-10-23T17:49:24.880Z,99.90
2022-10-23T17:51:56.684Z,99.90
2022-10-23T17:54:25.177Z,99.90
2022-10-23T17:56:52.351Z,99.90
2022-10-23T17:59:19.935Z,99.90
2022-10-23T18:01:48.496Z,99.90
2022-10-23T18:04:18.528Z,99.90
2022-10-23T18:06:51.149Z,99.90
2022-10-23T18:09:19.136Z,99.90
2022-10-23T18:11:49.419Z,99.90
2022-10-23T18:14:18.959Z,99.90
2022-10-23T18:16:46.544Z,99.90
2022-10-23T18:19:15.541Z,99.90
2022-10-23T18:21:42.669Z,99.90
2022-10-23T18:24:13.550Z,99.90
2022-10-23T18:26:42.246Z,99.90
2022-10-23T18:29:11.757Z,99.90
2022-10-23T18:31:39.280Z,99.90
2022-10-23T18:34:12.420Z,99.90
2022-10-23T18:36:41.170Z,99.90
2022-10-23T18:39:12.369Z,99.90
2022-10-23T18:41:41.536Z,99.90
2022-10-23T18:44:13.910Z,99.90
2022-10-23T18:46:40.961Z,99.90
2022-10-23T18:49:08.475Z,99.90
2022-10-23T18:51:36.997Z,99.90
2022-10-23T18:54:08.449Z,99.90
2022-10-23T18:56:36.204Z,99.90
2022-10-23T18:59:05.528Z,99.90
2022-10-23T19:01:33.817Z,99.90
2022-10-23T19:04:03.062Z,99.90
2022-10-23T19:06:31.332Z,99.90
2022-10-23T19:09:01.483Z,99.90
2022-10-23T19:11:29.186Z,99.90
2022-10-23T19:13:56.808Z,99.90
2022-10-23T19:16:36.066Z,99.90
2022-10-23T19:19:22.765Z,99.90
2022-10-23T19:21:50.581Z,99.90
2022-10-23T19:24:25.843Z,99.90
2022-10-23T19:26:52.935Z,99.90
2022-10-23T19:29:23.267Z,99.90
2022-10-23T19:31:50.673Z,99.90
2022-10-23T19:34:20.159Z,99.90
2022-10-23T19:36:48.622Z,99.90
2022-10-23T19:39:16.568Z,99.90
2022-10-23T19:41:43.780Z,99.90
2022-10-23T19:44:12.979Z,99.90
2022-10-23T19:46:40.023Z,99.90
2022-10-23T19:49:08.830Z,99.90
2022-10-23T19:51:36.355Z,99.90
2022-10-23T19:54:04.117Z,99.90
2022-10-23T19:56:31.857Z,99.90
2022-10-23T19:58:59.038Z,99.90
2022-10-23T20:01:26.228Z,99.90
2022-10-23T20:03:55.495Z,99.90
2022-10-23T20:06:25.892Z,99.90
2022-10-23T20:08:53.709Z,99.90
2022-10-23T20:11:28.210Z,99.90
2022-10-23T20:13:59.140Z,99.90
2022-10-23T20:16:29.725Z,99.90
2022-10-23T20:18:58.070Z,99.90
2022-10-23T20:21:25.525Z,99.90
2022-10-23T20:23:52.908Z,99.90
2022-10-23T20:26:23.281Z,99.90
2022-10-23T20:28:55.157Z,99.90
2022-10-23T20:31:25.382Z,99.90
2022-10-23T20:33:53.044Z,99.90
2022-10-23T20:36:25.328Z,99.90
2022-10-23T20:38:53.300Z,99.90
2022-10-23T20:41:21.006Z,99.90
2022-10-23T20:43:48.476Z,99.90
2022-10-23T20:46:15.742Z,99.90
2022-10-23T20:48:45.004Z,99.90
2022-10-23T20:51:14.617Z,99.90
2022-10-23T20:53:43.448Z,99.90
2022-10-23T20:56:23.565Z,99.90
2022-10-23T20:58:50.889Z,99.90
2022-10-23T21:01:18.658Z,99.90
2022-10-23T21:03:53.020Z,99.90
2022-10-23T21:06:20.297Z,99.90
2022-10-23T21:08:47.674Z,99.90
2022-10-23T21:11:17.451Z,99.90
2022-10-23T21:13:45.112Z,99.90
2022-10-23T21:16:18.308Z,99.90
2022-10-23T21:18:46.865Z,99.90
2022-10-23T21:21:19.287Z,99.90
2022-10-23T21:23:48.483Z,99.90
2022-10-23T21:26:17.502Z,99.90
2022-10-23T21:28:56.125Z,99.90
2022-10-23T21:31:33.866Z,99.90
2022-10-23T21:34:01.313Z,99.90
2022-10-23T21:36:31.055Z,99.90
2022-10-23T21:39:01.588Z,99.90
2022-10-23T21:41:32.337Z,99.90
2022-10-23T21:44:03.751Z,99.90
2022-10-23T21:46:33.072Z,99.90
2022-10-23T21:49:01.000Z,99.90
2022-10-23T21:51:38.206Z,99.90
2022-10-23T21:54:07.556Z,99.90
2022-10-23T21:56:43.673Z,99.90
2022-10-23T21:59:13.452Z,99.90
2022-10-23T22:01:43.156Z,99.90
2022-10-23T22:04:14.055Z,99.90
2022-10-23T22:06:45.378Z,99.90
2022-10-23T22:09:14.966Z,99.90
2022-10-23T22:11:42.443Z,99.90
2022-10-23T22:14:09.626Z,99.90
2022-10-23T22:16:36.682Z,99.90
2022-10-23T22:19:04.349Z,99.90
2022-10-23T22:21:31.960Z,99.90
2022-10-23T22:24:00.449Z,99.90
2022-10-23T22:26:33.819Z,99.90
2022-10-23T22:29:05.385Z,99.90
2022-10-23T22:31:34.146Z,99.90
2022-10-23T22:34:13.202Z,99.90
2022-10-23T22:36:50.034Z,99.90
2022-10-23T22:39:17.399Z,99.90
2022-10-23T22:41:44.410Z,99.90
2022-10-23T22:44:12.282Z,99.90
2022-10-23T22:46:39.229Z,99.90
2022-10-23T22:51:39.669Z,99.90
2022-10-23T22:54:07.077Z,99.90
2022-10-23T22:56:34.599Z,99.90
2022-10-23T22:59:02.454Z,99.90
2022-10-23T23:01:36.842Z,99.90
2022-10-23T23:04:19.454Z,99.90
2022-10-23T23:06:51.430Z,99.90
2022-10-23T23:09:18.803Z,99.90
2022-10-23T23:11:51.799Z,99.90
2022-10-23T23:14:23.681Z,99.90
2022-10-23T23:16:54.522Z,99.90
2022-10-23T23:19:23.233Z,99.90
2022-10-23T23:21:50.581Z,99.90
2022-10-23T23:24:17.906Z,99.90
2022-10-23T23:26:44.879Z,99.90
2022-10-23T23:29:12.491Z,99.90
2022-10-23T23:31:39.996Z,99.90
2022-10-23T23:34:07.177Z,99.90
2022-10-23T23:36:34.956Z,99.90
2022-10-23T23:41:34.703Z,99.90
2022-10-23T23:44:01.909Z,99.90
2022-10-23T23:46:28.937Z,99.90
2022-10-23T23:48:56.179Z,99.90
2022-10-23T23:51:25.737Z,99.90
2022-10-23T23:53:53.781Z,99.90
2022-10-23T23:56:21.794Z,99.90
2022-10-23T23:58:49.031Z,99.90
